sensor_id;sensor_type;location;lat;lon;timestamp;P1;durP1;ratioP1;P2;durP2;ratioP2
14736;SDS011;7459;53.590;10.062;2023-08-01T00:01:56;5.30;;;1.60;;
14736;SDS011;7459;53.590;10.062;2023-08-01T00:04:22;4.90;;;2.28;;
14736;SDS011;7459;53.590;10.062;2023-08-01T00:06:48;5.83;;;1.73;;
14736;SDS011;7459;53.590;10.062;2023-08-01T00:09:13;6.00;;;2.30;;
14736;SDS011;7459;53.590;10.062;2023-08-01T00:11:39;5.07;;;1.90;;
14736;SDS011;7459;53.590;10.062;2023-08-01T00:14:05;4.90;;;1.38;;
14736;SDS011;7459;53.590;10.062;2023-08-01T00:16:30;4.60;;;1.97;;
14736;SDS011;7459;53.590;10.062;2023-08-01T00:18:57;4.15;;;1.55;;
14736;SDS011;7459;53.590;10.062;2023-08-01T00:21:23;4.57;;;1.93;;
14736;SDS011;7459;53.590;10.062;2023-08-01T00:23:48;3.78;;;1.70;;
14736;SDS011;7459;53.590;10.062;2023-08-01T00:26:14;3.27;;;1.27;;
14736;SDS011;7459;53.590;10.062;2023-08-01T00:28:40;3.30;;;1.20;;
14736;SDS011;7459;53.590;10.062;2023-08-01T00:31:06;4.57;;;1.40;;
14736;SDS011;7459;53.590;10.062;2023-08-01T00:33:35;3.78;;;1.13;;
14736;SDS011;7459;53.590;10.062;2023-08-01T00:36:01;5.25;;;1.20;;
14736;SDS011;7459;53.590;10.062;2023-08-01T00:38:27;5.10;;;1.03;;
14736;SDS011;7459;53.590;10.062;2023-08-01T00:40:53;4.15;;;0.98;;
14736;SDS011;7459;53.590;10.062;2023-08-01T00:43:19;3.20;;;1.00;;
14736;SDS011;7459;53.590;10.062;2023-08-01T00:45:45;3.43;;;0.97;;
14736;SDS011;7459;53.590;10.062;2023-08-01T00:48:11;4.47;;;0.90;;
14736;SDS011;7459;53.590;10.062;2023-08-01T00:50:37;2.45;;;0.68;;
14736;SDS011;7459;53.590;10.062;2023-08-01T00:53:04;4.90;;;0.80;;
14736;SDS011;7459;53.590;10.062;2023-08-01T00:55:30;3.38;;;1.10;;
14736;SDS011;7459;53.590;10.062;2023-08-01T00:57:58;2.45;;;0.65;;
14736;SDS011;7459;53.590;10.062;2023-08-01T01:00:23;2.80;;;1.00;;
14736;SDS011;7459;53.590;10.062;2023-08-01T01:02:49;3.43;;;1.00;;
14736;SDS011;7459;53.590;10.062;2023-08-01T01:05:15;4.28;;;1.17;;
14736;SDS011;7459;53.590;10.062;2023-08-01T01:07:41;3.73;;;1.20;;
14736;SDS011;7459;53.590;10.062;2023-08-01T01:10:07;2.95;;;1.08;;
14736;SDS011;7459;53.590;10.062;2023-08-01T01:12:33;3.33;;;1.00;;
14736;SDS011;7459;53.590;10.062;2023-08-01T01:14:58;4.33;;;0.80;;
14736;SDS011;7459;53.590;10.062;2023-08-01T01:17:24;3.50;;;1.25;;
14736;SDS011;7459;53.590;10.062;2023-08-01T01:19:50;3.40;;;0.80;;
14736;SDS011;7459;53.590;10.062;2023-08-01T01:22:15;3.95;;;1.05;;
14736;SDS011;7459;53.590;10.062;2023-08-01T01:24:42;4.30;;;1.30;;
14736;SDS011;7459;53.590;10.062;2023-08-01T01:27:08;3.25;;;1.33;;
14736;SDS011;7459;53.590;10.062;2023-08-01T01:29:34;4.80;;;1.40;;
14736;SDS011;7459;53.590;10.062;2023-08-01T01:32:01;3.90;;;1.70;;
14736;SDS011;7459;53.590;10.062;2023-08-01T01:34:28;4.03;;;1.50;;
14736;SDS011;7459;53.590;10.062;2023-08-01T01:36:54;4.57;;;1.87;;
14736;SDS011;7459;53.590;10.062;2023-08-01T01:39:20;4.65;;;2.30;;
14736;SDS011;7459;53.590;10.062;2023-08-01T01:41:46;5.00;;;2.20;;
14736;SDS011;7459;53.590;10.062;2023-08-01T01:44:12;5.40;;;2.13;;
14736;SDS011;7459;53.590;10.062;2023-08-01T01:46:37;5.40;;;2.10;;
14736;SDS011;7459;53.590;10.062;2023-08-01T01:49:03;5.90;;;2.08;;
14736;SDS011;7459;53.590;10.062;2023-08-01T01:51:29;8.07;;;3.00;;
14736;SDS011;7459;53.590;10.062;2023-08-01T01:53:55;7.00;;;2.83;;
14736;SDS011;7459;53.590;10.062;2023-08-01T01:56:21;7.43;;;2.10;;
14736;SDS011;7459;53.590;10.062;2023-08-01T01:58:47;5.50;;;2.60;;
14736;SDS011;7459;53.590;10.062;2023-08-01T02:01:12;5.22;;;2.70;;
14736;SDS011;7459;53.590;10.062;2023-08-01T02:03:38;6.87;;;3.40;;
14736;SDS011;7459;53.590;10.062;2023-08-01T02:06:04;7.20;;;2.60;;
14736;SDS011;7459;53.590;10.062;2023-08-01T02:08:30;8.30;;;2.60;;
14736;SDS011;7459;53.590;10.062;2023-08-01T02:10:56;6.15;;;2.85;;
14736;SDS011;7459;53.590;10.062;2023-08-01T02:13:23;6.88;;;2.95;;
14736;SDS011;7459;53.590;10.062;2023-08-01T02:15:53;10.07;;;3.38;;
14736;SDS011;7459;53.590;10.062;2023-08-01T02:18:19;6.60;;;2.85;;
14736;SDS011;7459;53.590;10.062;2023-08-01T02:20:45;6.83;;;3.80;;
14736;SDS011;7459;53.590;10.062;2023-08-01T02:23:11;8.80;;;4.03;;
14736;SDS011;7459;53.590;10.062;2023-08-01T02:25:39;9.00;;;4.03;;
14736;SDS011;7459;53.590;10.062;2023-08-01T02:28:05;9.60;;;4.57;;
14736;SDS011;7459;53.590;10.062;2023-08-01T02:30:32;8.07;;;4.43;;
14736;SDS011;7459;53.590;10.062;2023-08-01T02:32:59;11.30;;;4.97;;
14736;SDS011;7459;53.590;10.062;2023-08-01T02:35:24;8.17;;;4.63;;
14736;SDS011;7459;53.590;10.062;2023-08-01T02:37:50;10.23;;;4.68;;
14736;SDS011;7459;53.590;10.062;2023-08-01T02:40:16;8.67;;;4.50;;
14736;SDS011;7459;53.590;10.062;2023-08-01T02:42:41;8.25;;;4.32;;
14736;SDS011;7459;53.590;10.062;2023-08-01T02:45:08;11.02;;;5.00;;
14736;SDS011;7459;53.590;10.062;2023-08-01T02:47:33;9.43;;;5.67;;
14736;SDS011;7459;53.590;10.062;2023-08-01T02:49:59;10.40;;;5.20;;
14736;SDS011;7459;53.590;10.062;2023-08-01T02:52:25;10.97;;;6.20;;
14736;SDS011;7459;53.590;10.062;2023-08-01T02:54:50;9.55;;;5.30;;
14736;SDS011;7459;53.590;10.062;2023-08-01T02:57:16;11.57;;;5.73;;
14736;SDS011;7459;53.590;10.062;2023-08-01T02:59:42;10.95;;;5.88;;
14736;SDS011;7459;53.590;10.062;2023-08-01T03:02:07;12.67;;;5.30;;
14736;SDS011;7459;53.590;10.062;2023-08-01T03:04:33;9.77;;;5.50;;
14736;SDS011;7459;53.590;10.062;2023-08-01T03:06:59;12.60;;;6.13;;
14736;SDS011;7459;53.590;10.062;2023-08-01T03:09:25;12.20;;;6.88;;
14736;SDS011;7459;53.590;10.062;2023-08-01T03:11:51;10.23;;;5.53;;
14736;SDS011;7459;53.590;10.062;2023-08-01T03:14:16;12.88;;;5.95;;
14736;SDS011;7459;53.590;10.062;2023-08-01T03:16:42;11.37;;;5.77;;
14736;SDS011;7459;53.590;10.062;2023-08-01T03:19:08;11.77;;;5.65;;
14736;SDS011;7459;53.590;10.062;2023-08-01T03:21:33;11.90;;;6.10;;
14736;SDS011;7459;53.590;10.062;2023-08-01T03:24:00;9.98;;;5.85;;
14736;SDS011;7459;53.590;10.062;2023-08-01T03:26:27;12.18;;;6.50;;
14736;SDS011;7459;53.590;10.062;2023-08-01T03:28:53;14.10;;;6.28;;
14736;SDS011;7459;53.590;10.062;2023-08-01T03:31:20;12.68;;;5.88;;
14736;SDS011;7459;53.590;10.062;2023-08-01T03:33:47;12.63;;;6.77;;
14736;SDS011;7459;53.590;10.062;2023-08-01T03:36:13;11.18;;;6.03;;
14736;SDS011;7459;53.590;10.062;2023-08-01T03:38:38;14.43;;;6.20;;
14736;SDS011;7459;53.590;10.062;2023-08-01T03:41:04;12.27;;;6.07;;
14736;SDS011;7459;53.590;10.062;2023-08-01T03:43:30;13.95;;;7.78;;
14736;SDS011;7459;53.590;10.062;2023-08-01T03:45:56;11.33;;;6.90;;
14736;SDS011;7459;53.590;10.062;2023-08-01T03:48:21;13.52;;;8.93;;
14736;SDS011;7459;53.590;10.062;2023-08-01T03:50:47;11.70;;;6.47;;
14736;SDS011;7459;53.590;10.062;2023-08-01T03:53:13;14.32;;;7.10;;
14736;SDS011;7459;53.590;10.062;2023-08-01T03:55:39;12.30;;;5.83;;
14736;SDS011;7459;53.590;10.062;2023-08-01T03:58:04;11.40;;;6.35;;
14736;SDS011;7459;53.590;10.062;2023-08-01T04:00:30;9.63;;;5.80;;
14736;SDS011;7459;53.590;10.062;2023-08-01T04:02:58;14.60;;;6.65;;
14736;SDS011;7459;53.590;10.062;2023-08-01T04:05:24;11.68;;;6.55;;
14736;SDS011;7459;53.590;10.062;2023-08-01T04:07:49;10.43;;;6.27;;
14736;SDS011;7459;53.590;10.062;2023-08-01T04:10:15;15.13;;;6.90;;
14736;SDS011;7459;53.590;10.062;2023-08-01T04:12:41;12.83;;;6.37;;
14736;SDS011;7459;53.590;10.062;2023-08-01T04:15:07;12.60;;;6.57;;
14736;SDS011;7459;53.590;10.062;2023-08-01T04:17:34;12.13;;;6.90;;
14736;SDS011;7459;53.590;10.062;2023-08-01T04:19:59;12.10;;;6.13;;
14736;SDS011;7459;53.590;10.062;2023-08-01T04:22:25;11.33;;;6.23;;
14736;SDS011;7459;53.590;10.062;2023-08-01T04:24:51;12.43;;;5.80;;
14736;SDS011;7459;53.590;10.062;2023-08-01T04:27:17;11.50;;;6.57;;
14736;SDS011;7459;53.590;10.062;2023-08-01T04:29:42;10.93;;;5.82;;
14736;SDS011;7459;53.590;10.062;2023-08-01T04:32:08;12.77;;;5.97;;
14736;SDS011;7459;53.590;10.062;2023-08-01T04:34:35;11.27;;;5.80;;
14736;SDS011;7459;53.590;10.062;2023-08-01T04:37:01;11.40;;;6.43;;
14736;SDS011;7459;53.590;10.062;2023-08-01T04:39:27;11.70;;;5.47;;
14736;SDS011;7459;53.590;10.062;2023-08-01T04:41:53;13.65;;;6.47;;
14736;SDS011;7459;53.590;10.062;2023-08-01T04:44:18;12.20;;;6.30;;
14736;SDS011;7459;53.590;10.062;2023-08-01T04:46:44;10.27;;;5.70;;
14736;SDS011;7459;53.590;10.062;2023-08-01T04:49:09;13.13;;;6.17;;
14736;SDS011;7459;53.590;10.062;2023-08-01T04:51:35;12.77;;;6.22;;
14736;SDS011;7459;53.590;10.062;2023-08-01T04:54:01;13.03;;;6.73;;
14736;SDS011;7459;53.590;10.062;2023-08-01T04:56:26;11.77;;;6.50;;
14736;SDS011;7459;53.590;10.062;2023-08-01T04:58:52;11.57;;;6.23;;
14736;SDS011;7459;53.590;10.062;2023-08-01T05:01:18;14.10;;;7.03;;
14736;SDS011;7459;53.590;10.062;2023-08-01T05:03:43;11.70;;;6.50;;
14736;SDS011;7459;53.590;10.062;2023-08-01T05:06:09;12.70;;;5.87;;
14736;SDS011;7459;53.590;10.062;2023-08-01T05:08:35;11.00;;;6.77;;
14736;SDS011;7459;53.590;10.062;2023-08-01T05:11:00;11.97;;;6.57;;
14736;SDS011;7459;53.590;10.062;2023-08-01T05:13:26;12.20;;;6.40;;
14736;SDS011;7459;53.590;10.062;2023-08-01T05:15:52;12.07;;;6.43;;
14736;SDS011;7459;53.590;10.062;2023-08-01T05:18:18;12.73;;;5.87;;
14736;SDS011;7459;53.590;10.062;2023-08-01T05:20:44;12.70;;;6.63;;
14736;SDS011;7459;53.590;10.062;2023-08-01T05:23:09;11.43;;;6.20;;
14736;SDS011;7459;53.590;10.062;2023-08-01T05:25:35;12.00;;;5.47;;
14736;SDS011;7459;53.590;10.062;2023-08-01T05:28:01;10.87;;;5.80;;
14736;SDS011;7459;53.590;10.062;2023-08-01T05:30:26;11.77;;;6.03;;
14736;SDS011;7459;53.590;10.062;2023-08-01T05:32:52;13.03;;;5.53;;
14736;SDS011;7459;53.590;10.062;2023-08-01T05:35:19;11.27;;;5.70;;
14736;SDS011;7459;53.590;10.062;2023-08-01T05:37:45;11.65;;;5.80;;
14736;SDS011;7459;53.590;10.062;2023-08-01T05:40:11;12.88;;;5.68;;
14736;SDS011;7459;53.590;10.062;2023-08-01T05:42:37;13.48;;;6.22;;
14736;SDS011;7459;53.590;10.062;2023-08-01T05:45:03;11.90;;;5.70;;
14736;SDS011;7459;53.590;10.062;2023-08-01T05:47:29;12.55;;;5.95;;
14736;SDS011;7459;53.590;10.062;2023-08-01T05:49:55;10.77;;;5.78;;
14736;SDS011;7459;53.590;10.062;2023-08-01T05:52:21;9.60;;;4.67;;
14736;SDS011;7459;53.590;10.062;2023-08-01T05:54:47;15.52;;;5.38;;
14736;SDS011;7459;53.590;10.062;2023-08-01T05:57:15;12.93;;;5.73;;
14736;SDS011;7459;53.590;10.062;2023-08-01T05:59:41;12.05;;;5.53;;
14736;SDS011;7459;53.590;10.062;2023-08-01T06:02:06;12.15;;;5.85;;
14736;SDS011;7459;53.590;10.062;2023-08-01T06:04:32;12.57;;;7.90;;
14736;SDS011;7459;53.590;10.062;2023-08-01T06:06:58;13.07;;;5.18;;
14736;SDS011;7459;53.590;10.062;2023-08-01T06:09:24;9.37;;;4.87;;
14736;SDS011;7459;53.590;10.062;2023-08-01T06:11:50;10.48;;;5.45;;
14736;SDS011;7459;53.590;10.062;2023-08-01T06:14:16;9.68;;;4.55;;
14736;SDS011;7459;53.590;10.062;2023-08-01T06:16:42;10.27;;;5.03;;
14736;SDS011;7459;53.590;10.062;2023-08-01T06:19:08;10.73;;;4.43;;
14736;SDS011;7459;53.590;10.062;2023-08-01T06:21:34;9.32;;;4.72;;
14736;SDS011;7459;53.590;10.062;2023-08-01T06:24:00;10.80;;;4.80;;
14736;SDS011;7459;53.590;10.062;2023-08-01T06:26:25;10.57;;;4.53;;
14736;SDS011;7459;53.590;10.062;2023-08-01T06:28:53;10.25;;;4.10;;
14736;SDS011;7459;53.590;10.062;2023-08-01T06:31:19;13.23;;;5.63;;
14736;SDS011;7459;53.590;10.062;2023-08-01T06:33:45;8.73;;;4.63;;
14736;SDS011;7459;53.590;10.062;2023-08-01T06:36:11;9.48;;;4.20;;
14736;SDS011;7459;53.590;10.062;2023-08-01T06:38:38;10.60;;;4.37;;
14736;SDS011;7459;53.590;10.062;2023-08-01T06:41:04;10.85;;;4.07;;
14736;SDS011;7459;53.590;10.062;2023-08-01T06:43:29;9.93;;;3.42;;
14736;SDS011;7459;53.590;10.062;2023-08-01T06:45:55;8.77;;;4.23;;
14736;SDS011;7459;53.590;10.062;2023-08-01T06:48:21;8.48;;;3.85;;
14736;SDS011;7459;53.590;10.062;2023-08-01T06:50:46;10.70;;;4.13;;
14736;SDS011;7459;53.590;10.062;2023-08-01T06:53:12;8.13;;;3.63;;
14736;SDS011;7459;53.590;10.062;2023-08-01T06:55:38;8.97;;;3.53;;
14736;SDS011;7459;53.590;10.062;2023-08-01T06:58:04;6.80;;;3.22;;
14736;SDS011;7459;53.590;10.062;2023-08-01T07:00:30;7.60;;;3.25;;
14736;SDS011;7459;53.590;10.062;2023-08-01T07:02:56;9.70;;;3.27;;
14736;SDS011;7459;53.590;10.062;2023-08-01T07:05:22;9.25;;;2.80;;
14736;SDS011;7459;53.590;10.062;2023-08-01T07:07:48;6.72;;;2.80;;
14736;SDS011;7459;53.590;10.062;2023-08-01T07:10:14;7.87;;;3.03;;
14736;SDS011;7459;53.590;10.062;2023-08-01T07:12:39;11.93;;;3.28;;
14736;SDS011;7459;53.590;10.062;2023-08-01T07:15:05;6.07;;;2.50;;
14736;SDS011;7459;53.590;10.062;2023-08-01T07:17:32;9.13;;;2.13;;
14736;SDS011;7459;53.590;10.062;2023-08-01T07:19:58;10.38;;;2.45;;
14736;SDS011;7459;53.590;10.062;2023-08-01T07:22:24;8.90;;;2.50;;
14736;SDS011;7459;53.590;10.062;2023-08-01T07:24:53;7.20;;;2.47;;
14736;SDS011;7459;53.590;10.062;2023-08-01T07:27:19;5.80;;;2.50;;
14736;SDS011;7459;53.590;10.062;2023-08-01T07:29:46;6.35;;;2.25;;
14736;SDS011;7459;53.590;10.062;2023-08-01T07:32:12;7.57;;;2.40;;
14736;SDS011;7459;53.590;10.062;2023-08-01T07:34:37;6.80;;;2.27;;
14736;SDS011;7459;53.590;10.062;2023-08-01T07:37:03;9.27;;;2.45;;
14736;SDS011;7459;53.590;10.062;2023-08-01T07:39:29;9.30;;;2.97;;
14736;SDS011;7459;53.590;10.062;2023-08-01T07:41:55;10.02;;;2.67;;
14736;SDS011;7459;53.590;10.062;2023-08-01T07:44:21;6.88;;;2.40;;
14736;SDS011;7459;53.590;10.062;2023-08-01T07:46:47;7.70;;;2.33;;
14736;SDS011;7459;53.590;10.062;2023-08-01T07:49:12;8.23;;;2.30;;
14736;SDS011;7459;53.590;10.062;2023-08-01T07:51:38;6.67;;;2.23;;
14736;SDS011;7459;53.590;10.062;2023-08-01T07:54:04;9.88;;;1.92;;
14736;SDS011;7459;53.590;10.062;2023-08-01T07:56:29;7.20;;;2.40;;
14736;SDS011;7459;53.590;10.062;2023-08-01T07:58:55;5.70;;;2.13;;
14736;SDS011;7459;53.590;10.062;2023-08-01T08:01:21;5.70;;;2.53;;
14736;SDS011;7459;53.590;10.062;2023-08-01T08:03:47;7.35;;;2.20;;
14736;SDS011;7459;53.590;10.062;2023-08-01T08:06:13;9.38;;;2.50;;
14736;SDS011;7459;53.590;10.062;2023-08-01T08:08:38;7.10;;;2.47;;
14736;SDS011;7459;53.590;10.062;2023-08-01T08:11:04;6.55;;;2.10;;
14736;SDS011;7459;53.590;10.062;2023-08-01T08:13:30;9.27;;;2.40;;
14736;SDS011;7459;53.590;10.062;2023-08-01T08:15:56;5.60;;;2.05;;
14736;SDS011;7459;53.590;10.062;2023-08-01T08:18:22;8.88;;;2.63;;
14736;SDS011;7459;53.590;10.062;2023-08-01T08:20:48;9.70;;;2.60;;
14736;SDS011;7459;53.590;10.062;2023-08-01T08:23:13;5.97;;;2.42;;
14736;SDS011;7459;53.590;10.062;2023-08-01T08:25:39;6.47;;;1.97;;
14736;SDS011;7459;53.590;10.062;2023-08-01T08:28:12;8.57;;;2.40;;
14736;SDS011;7459;53.590;10.062;2023-08-01T08:30:38;8.40;;;2.13;;
14736;SDS011;7459;53.590;10.062;2023-08-01T08:33:04;7.82;;;2.60;;
14736;SDS011;7459;53.590;10.062;2023-08-01T08:35:31;8.65;;;2.15;;
14736;SDS011;7459;53.590;10.062;2023-08-01T08:38:01;6.80;;;2.17;;
14736;SDS011;7459;53.590;10.062;2023-08-01T08:40:34;7.80;;;2.60;;
14736;SDS011;7459;53.590;10.062;2023-08-01T08:43:06;9.18;;;2.05;;
14736;SDS011;7459;53.590;10.062;2023-08-01T08:45:34;9.20;;;2.30;;
14736;SDS011;7459;53.590;10.062;2023-08-01T08:48:01;9.82;;;2.53;;
14736;SDS011;7459;53.590;10.062;2023-08-01T08:50:34;8.20;;;2.40;;
14736;SDS011;7459;53.590;10.062;2023-08-01T08:53:01;11.07;;;2.88;;
14736;SDS011;7459;53.590;10.062;2023-08-01T08:55:27;10.75;;;2.95;;
14736;SDS011;7459;53.590;10.062;2023-08-01T08:57:54;9.45;;;2.92;;
14736;SDS011;7459;53.590;10.062;2023-08-01T09:00:20;7.00;;;2.40;;
14736;SDS011;7459;53.590;10.062;2023-08-01T09:02:47;5.67;;;2.53;;
14736;SDS011;7459;53.590;10.062;2023-08-01T09:05:13;7.85;;;3.05;;
14736;SDS011;7459;53.590;10.062;2023-08-01T09:07:39;11.65;;;2.50;;
14736;SDS011;7459;53.590;10.062;2023-08-01T09:10:08;8.50;;;3.40;;
14736;SDS011;7459;53.590;10.062;2023-08-01T09:12:34;10.48;;;2.78;;
14736;SDS011;7459;53.590;10.062;2023-08-01T09:15:00;7.95;;;2.38;;
14736;SDS011;7459;53.590;10.062;2023-08-01T09:17:26;7.93;;;2.90;;
14736;SDS011;7459;53.590;10.062;2023-08-01T09:19:55;7.65;;;2.60;;
14736;SDS011;7459;53.590;10.062;2023-08-01T09:22:30;8.93;;;2.40;;
14736;SDS011;7459;53.590;10.062;2023-08-01T09:25:11;7.53;;;2.28;;
14736;SDS011;7459;53.590;10.062;2023-08-01T09:27:38;9.53;;;2.70;;
14736;SDS011;7459;53.590;10.062;2023-08-01T09:30:07;7.22;;;2.58;;
14736;SDS011;7459;53.590;10.062;2023-08-01T09:32:36;7.47;;;2.65;;
14736;SDS011;7459;53.590;10.062;2023-08-01T09:35:03;7.95;;;2.40;;
14736;SDS011;7459;53.590;10.062;2023-08-01T09:37:39;6.27;;;2.30;;
14736;SDS011;7459;53.590;10.062;2023-08-01T09:40:06;4.68;;;2.10;;
14736;SDS011;7459;53.590;10.062;2023-08-01T09:42:39;5.10;;;2.00;;
14736;SDS011;7459;53.590;10.062;2023-08-01T09:45:13;6.32;;;1.80;;
14736;SDS011;7459;53.590;10.062;2023-08-01T09:47:41;6.05;;;1.95;;
14736;SDS011;7459;53.590;10.062;2023-08-01T09:50:09;6.07;;;1.90;;
14736;SDS011;7459;53.590;10.062;2023-08-01T09:52:39;4.88;;;1.70;;
14736;SDS011;7459;53.590;10.062;2023-08-01T09:55:05;4.30;;;1.52;;
14736;SDS011;7459;53.590;10.062;2023-08-01T09:57:32;5.77;;;1.43;;
14736;SDS011;7459;53.590;10.062;2023-08-01T10:00:02;7.22;;;1.52;;
14736;SDS011;7459;53.590;10.062;2023-08-01T10:02:29;4.95;;;1.40;;
14736;SDS011;7459;53.590;10.062;2023-08-01T10:04:57;6.93;;;1.90;;
14736;SDS011;7459;53.590;10.062;2023-08-01T10:07:25;4.53;;;1.33;;
14736;SDS011;7459;53.590;10.062;2023-08-01T10:09:57;4.70;;;1.40;;
14736;SDS011;7459;53.590;10.062;2023-08-01T10:12:25;6.03;;;1.40;;
14736;SDS011;7459;53.590;10.062;2023-08-01T10:14:52;3.97;;;1.10;;
14736;SDS011;7459;53.590;10.062;2023-08-01T10:17:20;3.85;;;1.08;;
14736;SDS011;7459;53.590;10.062;2023-08-01T10:19:47;3.03;;;1.00;;
14736;SDS011;7459;53.590;10.062;2023-08-01T10:22:15;6.23;;;1.50;;
14736;SDS011;7459;53.590;10.062;2023-08-01T10:24:42;5.38;;;1.30;;
14736;SDS011;7459;53.590;10.062;2023-08-01T10:27:15;4.32;;;1.42;;
14736;SDS011;7459;53.590;10.062;2023-08-01T10:29:45;4.85;;;1.20;;
14736;SDS011;7459;53.590;10.062;2023-08-01T10:32:35;3.00;;;1.02;;
14736;SDS011;7459;53.590;10.062;2023-08-01T10:35:03;7.57;;;1.40;;
14736;SDS011;7459;53.590;10.062;2023-08-01T10:40:41;5.30;;;1.33;;
14736;SDS011;7459;53.590;10.062;2023-08-01T10:43:21;4.20;;;2.15;;
14736;SDS011;7459;53.590;10.062;2023-08-01T10:45:48;3.35;;;1.15;;
14736;SDS011;7459;53.590;10.062;2023-08-01T10:48:26;3.17;;;0.93;;
14736;SDS011;7459;53.590;10.062;2023-08-01T10:50:55;3.53;;;1.17;;
14736;SDS011;7459;53.590;10.062;2023-08-01T10:53:24;4.53;;;1.02;;
14736;SDS011;7459;53.590;10.062;2023-08-01T10:55:50;4.50;;;0.73;;
14736;SDS011;7459;53.590;10.062;2023-08-01T10:58:15;3.80;;;0.70;;
14736;SDS011;7459;53.590;10.062;2023-08-01T11:00:42;4.40;;;1.00;;
14736;SDS011;7459;53.590;10.062;2023-08-01T11:03:08;2.83;;;0.70;;
14736;SDS011;7459;53.590;10.062;2023-08-01T11:05:33;3.07;;;0.70;;
14736;SDS011;7459;53.590;10.062;2023-08-01T11:08:00;3.27;;;1.03;;
14736;SDS011;7459;53.590;10.062;2023-08-01T11:10:29;2.35;;;0.70;;
14736;SDS011;7459;53.590;10.062;2023-08-01T11:12:56;3.03;;;0.60;;
14736;SDS011;7459;53.590;10.062;2023-08-01T11:15:23;2.73;;;0.30;;
14736;SDS011;7459;53.590;10.062;2023-08-01T11:17:50;3.33;;;0.30;;
14736;SDS011;7459;53.590;10.062;2023-08-01T11:20:18;4.38;;;0.50;;
14736;SDS011;7459;53.590;10.062;2023-08-01T11:22:50;2.58;;;0.47;;
14736;SDS011;7459;53.590;10.062;2023-08-01T11:25:35;4.22;;;0.45;;
14736;SDS011;7459;53.590;10.062;2023-08-01T11:28:03;1.97;;;0.33;;
14736;SDS011;7459;53.590;10.062;2023-08-01T11:30:34;2.97;;;0.55;;
14736;SDS011;7459;53.590;10.062;2023-08-01T11:33:00;3.67;;;0.60;;
14736;SDS011;7459;53.590;10.062;2023-08-01T11:35:27;4.32;;;1.40;;
14736;SDS011;7459;53.590;10.062;2023-08-01T11:37:53;3.25;;;0.70;;
14736;SDS011;7459;53.590;10.062;2023-08-01T11:40:20;4.27;;;0.60;;
14736;SDS011;7459;53.590;10.062;2023-08-01T11:42:49;3.33;;;0.45;;
14736;SDS011;7459;53.590;10.062;2023-08-01T11:45:18;2.25;;;0.43;;
14736;SDS011;7459;53.590;10.062;2023-08-01T11:47:45;2.95;;;0.75;;
14736;SDS011;7459;53.590;10.062;2023-08-01T11:50:12;1.80;;;0.40;;
14736;SDS011;7459;53.590;10.062;2023-08-01T11:52:38;2.07;;;0.40;;
14736;SDS011;7459;53.590;10.062;2023-08-01T11:55:04;3.40;;;0.73;;
14736;SDS011;7459;53.590;10.062;2023-08-01T11:57:30;2.60;;;0.52;;
14736;SDS011;7459;53.590;10.062;2023-08-01T11:59:56;2.67;;;0.37;;
14736;SDS011;7459;53.590;10.062;2023-08-01T12:04:53;3.45;;;0.80;;
14736;SDS011;7459;53.590;10.062;2023-08-01T12:07:19;3.70;;;0.40;;
14736;SDS011;7459;53.590;10.062;2023-08-01T12:10:01;2.63;;;0.30;;
14736;SDS011;7459;53.590;10.062;2023-08-01T12:12:26;2.30;;;0.50;;
14736;SDS011;7459;53.590;10.062;2023-08-01T12:14:53;2.85;;;0.50;;
14736;SDS011;7459;53.590;10.062;2023-08-01T12:17:19;3.70;;;0.35;;
14736;SDS011;7459;53.590;10.062;2023-08-01T12:19:45;2.23;;;0.23;;
14736;SDS011;7459;53.590;10.062;2023-08-01T12:22:11;2.33;;;0.30;;
14736;SDS011;7459;53.590;10.062;2023-08-01T12:24:37;1.55;;;0.30;;
14736;SDS011;7459;53.590;10.062;2023-08-01T12:27:05;2.25;;;0.52;;
14736;SDS011;7459;53.590;10.062;2023-08-01T12:29:32;5.57;;;0.53;;
14736;SDS011;7459;53.590;10.062;2023-08-01T12:31:57;1.85;;;0.40;;
14736;SDS011;7459;53.590;10.062;2023-08-01T12:34:23;1.90;;;0.50;;
14736;SDS011;7459;53.590;10.062;2023-08-01T12:36:49;2.63;;;0.30;;
14736;SDS011;7459;53.590;10.062;2023-08-01T12:39:14;2.67;;;0.40;;
14736;SDS011;7459;53.590;10.062;2023-08-01T12:41:40;2.47;;;0.40;;
14736;SDS011;7459;53.590;10.062;2023-08-01T12:44:06;1.98;;;0.40;;
14736;SDS011;7459;53.590;10.062;2023-08-01T12:46:32;3.63;;;0.40;;
14736;SDS011;7459;53.590;10.062;2023-08-01T12:48:57;2.45;;;0.28;;
14736;SDS011;7459;53.590;10.062;2023-08-01T12:51:23;2.70;;;0.40;;
14736;SDS011;7459;53.590;10.062;2023-08-01T12:53:49;2.35;;;0.50;;
14736;SDS011;7459;53.590;10.062;2023-08-01T12:56:15;2.40;;;0.30;;
14736;SDS011;7459;53.590;10.062;2023-08-01T12:58:41;2.70;;;0.30;;
14736;SDS011;7459;53.590;10.062;2023-08-01T13:01:06;3.10;;;0.50;;
14736;SDS011;7459;53.590;10.062;2023-08-01T13:03:32;2.08;;;0.57;;
14736;SDS011;7459;53.590;10.062;2023-08-01T13:05:58;2.00;;;0.30;;
14736;SDS011;7459;53.590;10.062;2023-08-01T13:08:24;2.47;;;0.50;;
14736;SDS011;7459;53.590;10.062;2023-08-01T13:10:50;3.00;;;0.40;;
14736;SDS011;7459;53.590;10.062;2023-08-01T13:13:16;4.43;;;0.60;;
14736;SDS011;7459;53.590;10.062;2023-08-01T13:15:42;4.05;;;0.50;;
14736;SDS011;7459;53.590;10.062;2023-08-01T13:18:08;1.90;;;0.40;;
14736;SDS011;7459;53.590;10.062;2023-08-01T13:20:35;2.85;;;0.60;;
14736;SDS011;7459;53.590;10.062;2023-08-01T13:23:01;3.03;;;0.45;;
14736;SDS011;7459;53.590;10.062;2023-08-01T13:25:28;3.67;;;0.50;;
14736;SDS011;7459;53.590;10.062;2023-08-01T13:27:54;3.25;;;0.50;;
14736;SDS011;7459;53.590;10.062;2023-08-01T13:30:19;3.95;;;0.60;;
14736;SDS011;7459;53.590;10.062;2023-08-01T13:32:45;4.03;;;0.50;;
14736;SDS011;7459;53.590;10.062;2023-08-01T13:35:11;3.53;;;0.63;;
14736;SDS011;7459;53.590;10.062;2023-08-01T13:37:38;3.55;;;0.88;;
14736;SDS011;7459;53.590;10.062;2023-08-01T13:40:04;5.30;;;0.60;;
14736;SDS011;7459;53.590;10.062;2023-08-01T13:42:30;3.38;;;0.68;;
14736;SDS011;7459;53.590;10.062;2023-08-01T13:44:56;3.78;;;0.60;;
14736;SDS011;7459;53.590;10.062;2023-08-01T13:47:22;2.15;;;0.52;;
14736;SDS011;7459;53.590;10.062;2023-08-01T13:49:48;2.70;;;0.80;;
14736;SDS011;7459;53.590;10.062;2023-08-01T13:52:13;3.22;;;0.50;;
14736;SDS011;7459;53.590;10.062;2023-08-01T13:54:39;2.93;;;0.80;;
14736;SDS011;7459;53.590;10.062;2023-08-01T13:57:05;3.58;;;0.30;;
14736;SDS011;7459;53.590;10.062;2023-08-01T13:59:31;2.72;;;0.63;;
14736;SDS011;7459;53.590;10.062;2023-08-01T14:01:57;3.00;;;0.60;;
14736;SDS011;7459;53.590;10.062;2023-08-01T14:04:22;4.32;;;0.70;;
14736;SDS011;7459;53.590;10.062;2023-08-01T14:06:48;2.13;;;0.70;;
14736;SDS011;7459;53.590;10.062;2023-08-01T14:09:14;2.58;;;0.65;;
14736;SDS011;7459;53.590;10.062;2023-08-01T14:11:40;2.37;;;0.40;;
14736;SDS011;7459;53.590;10.062;2023-08-01T14:14:05;2.33;;;0.47;;
14736;SDS011;7459;53.590;10.062;2023-08-01T14:16:31;1.43;;;0.40;;
14736;SDS011;7459;53.590;10.062;2023-08-01T14:18:57;2.00;;;0.40;;
14736;SDS011;7459;53.590;10.062;2023-08-01T14:21:23;3.43;;;0.40;;
14736;SDS011;7459;53.590;10.062;2023-08-01T14:23:49;1.50;;;0.20;;
14736;SDS011;7459;53.590;10.062;2023-08-01T14:26:15;2.20;;;0.20;;
14736;SDS011;7459;53.590;10.062;2023-08-01T14:28:41;1.87;;;0.30;;
14736;SDS011;7459;53.590;10.062;2023-08-01T14:31:06;1.70;;;0.30;;
14736;SDS011;7459;53.590;10.062;2023-08-01T14:33:32;3.27;;;0.40;;
14736;SDS011;7459;53.590;10.062;2023-08-01T14:35:58;1.85;;;0.50;;
14736;SDS011;7459;53.590;10.062;2023-08-01T14:38:24;2.90;;;0.30;;
14736;SDS011;7459;53.590;10.062;2023-08-01T14:40:51;3.55;;;0.43;;
14736;SDS011;7459;53.590;10.062;2023-08-01T14:43:17;4.90;;;0.53;;
14736;SDS011;7459;53.590;10.062;2023-08-01T14:45:43;1.23;;;0.20;;